sensor_id;sensor_type;location;lat;lon;timestamp;P1;durP1;ratioP1;P2;durP2;ratioP2
47749;SDS011;49810;48.160;10.812;2023-03-31T00:00:50;16.33;;;9.05;;
47749;SDS011;49810;48.160;10.812;2023-03-31T00:03:19;21.27;;;8.45;;
47749;SDS011;49810;48.160;10.812;2023-03-31T00:05:53;14.25;;;8.20;;
47749;SDS011;49810;48.160;10.812;2023-03-31T00:08:21;13.15;;;8.32;;
47749;SDS011;49810;48.160;10.812;2023-03-31T00:10:49;20.65;;;9.10;;
47749;SDS011;49810;48.160;10.812;2023-03-31T00:13:17;17.17;;;8.20;;
47749;SDS011;49810;48.160;10.812;2023-03-31T00:15:45;17.13;;;8.95;;
47749;SDS011;49810;48.160;10.812;2023-03-31T00:18:13;13.48;;;8.63;;
47749;SDS011;49810;48.160;10.812;2023-03-31T00:20:43;14.15;;;8.50;;
47749;SDS011;49810;48.160;10.812;2023-03-31T00:23:11;15.50;;;7.72;;
47749;SDS011;49810;48.160;10.812;2023-03-31T00:25:40;15.75;;;8.80;;
47749;SDS011;49810;48.160;10.812;2023-03-31T00:28:08;19.83;;;8.82;;
47749;SDS011;49810;48.160;10.812;2023-03-31T00:30:36;12.13;;;6.97;;
47749;SDS011;49810;48.160;10.812;2023-03-31T00:33:04;14.05;;;7.60;;
47749;SDS011;49810;48.160;10.812;2023-03-31T00:35:34;19.98;;;6.80;;
47749;SDS011;49810;48.160;10.812;2023-03-31T00:38:06;13.10;;;7.22;;
47749;SDS011;49810;48.160;10.812;2023-03-31T00:40:45;12.63;;;6.88;;
47749;SDS011;49810;48.160;10.812;2023-03-31T00:43:25;14.00;;;7.53;;
47749;SDS011;49810;48.160;10.812;2023-03-31T00:45:55;13.15;;;7.63;;
47749;SDS011;49810;48.160;10.812;2023-03-31T00:48:27;17.23;;;6.90;;
47749;SDS011;49810;48.160;10.812;2023-03-31T00:50:56;14.88;;;6.97;;
47749;SDS011;49810;48.160;10.812;2023-03-31T00:53:28;16.67;;;7.72;;
47749;SDS011;49810;48.160;10.812;2023-03-31T00:55:58;11.27;;;7.18;;
47749;SDS011;49810;48.160;10.812;2023-03-31T00:58:28;13.27;;;8.18;;
47749;SDS011;49810;48.160;10.812;2023-03-31T01:00:59;14.13;;;7.15;;
47749;SDS011;49810;48.160;10.812;2023-03-31T01:03:29;19.55;;;8.20;;
47749;SDS011;49810;48.160;10.812;2023-03-31T01:05:59;14.15;;;7.35;;
47749;SDS011;49810;48.160;10.812;2023-03-31T01:08:30;19.02;;;8.10;;
47749;SDS011;49810;48.160;10.812;2023-03-31T01:11:02;18.27;;;8.50;;
47749;SDS011;49810;48.160;10.812;2023-03-31T01:13:32;16.58;;;8.60;;
47749;SDS011;49810;48.160;10.812;2023-03-31T01:16:01;14.43;;;8.57;;
47749;SDS011;49810;48.160;10.812;2023-03-31T01:18:29;17.73;;;9.10;;
47749;SDS011;49810;48.160;10.812;2023-03-31T01:21:06;15.68;;;9.25;;
47749;SDS011;49810;48.160;10.812;2023-03-31T01:26:41;14.50;;;8.68;;
47749;SDS011;49810;48.160;10.812;2023-03-31T01:29:14;16.45;;;9.15;;
47749;SDS011;49810;48.160;10.812;2023-03-31T01:31:55;17.80;;;9.18;;
47749;SDS011;49810;48.160;10.812;2023-03-31T01:34:35;19.98;;;8.88;;
47749;SDS011;49810;48.160;10.812;2023-03-31T01:37:18;14.93;;;8.82;;
47749;SDS011;49810;48.160;10.812;2023-03-31T01:39:56;17.30;;;8.73;;
47749;SDS011;49810;48.160;10.812;2023-03-31T01:42:28;19.08;;;8.80;;
47749;SDS011;49810;48.160;10.812;2023-03-31T01:45:00;17.45;;;7.28;;
47749;SDS011;49810;48.160;10.812;2023-03-31T01:47:30;14.35;;;7.72;;
47749;SDS011;49810;48.160;10.812;2023-03-31T01:50:00;17.38;;;7.93;;
47749;SDS011;49810;48.160;10.812;2023-03-31T01:52:31;14.85;;;6.93;;
47749;SDS011;49810;48.160;10.812;2023-03-31T01:55:06;16.75;;;6.80;;
47749;SDS011;49810;48.160;10.812;2023-03-31T01:57:36;13.45;;;6.78;;
47749;SDS011;49810;48.160;10.812;2023-03-31T02:00:06;15.85;;;6.90;;
47749;SDS011;49810;48.160;10.812;2023-03-31T02:02:41;12.63;;;6.53;;
47749;SDS011;49810;48.160;10.812;2023-03-31T02:05:14;9.75;;;5.20;;
47749;SDS011;49810;48.160;10.812;2023-03-31T02:07:45;15.00;;;6.70;;
47749;SDS011;49810;48.160;10.812;2023-03-31T02:10:15;12.32;;;6.45;;
47749;SDS011;49810;48.160;10.812;2023-03-31T02:12:44;14.60;;;6.63;;
47749;SDS011;49810;48.160;10.812;2023-03-31T02:15:13;15.77;;;6.82;;
47749;SDS011;49810;48.160;10.812;2023-03-31T02:17:44;12.40;;;6.57;;
47749;SDS011;49810;48.160;10.812;2023-03-31T02:20:13;14.75;;;6.97;;
47749;SDS011;49810;48.160;10.812;2023-03-31T02:22:42;12.80;;;6.90;;
47749;SDS011;49810;48.160;10.812;2023-03-31T02:25:13;13.98;;;7.03;;
47749;SDS011;49810;48.160;10.812;2023-03-31T02:27:44;14.73;;;6.78;;
47749;SDS011;49810;48.160;10.812;2023-03-31T02:30:13;14.70;;;7.30;;
47749;SDS011;49810;48.160;10.812;2023-03-31T02:32:42;19.58;;;7.85;;
47749;SDS011;49810;48.160;10.812;2023-03-31T02:35:11;17.90;;;7.82;;
47749;SDS011;49810;48.160;10.812;2023-03-31T02:37:40;13.77;;;7.88;;
47749;SDS011;49810;48.160;10.812;2023-03-31T02:40:08;15.82;;;8.07;;
47749;SDS011;49810;48.160;10.812;2023-03-31T02:42:39;16.60;;;7.43;;
47749;SDS011;49810;48.160;10.812;2023-03-31T02:47:53;15.05;;;7.00;;
47749;SDS011;49810;48.160;10.812;2023-03-31T02:50:21;17.55;;;6.78;;
47749;SDS011;49810;48.160;10.812;2023-03-31T02:52:52;13.82;;;6.70;;
47749;SDS011;49810;48.160;10.812;2023-03-31T02:55:34;14.68;;;7.15;;
47749;SDS011;49810;48.160;10.812;2023-03-31T03:00:57;18.33;;;7.80;;
47749;SDS011;49810;48.160;10.812;2023-03-31T03:03:33;25.58;;;8.45;;
47749;SDS011;49810;48.160;10.812;2023-03-31T03:06:05;20.23;;;8.88;;
47749;SDS011;49810;48.160;10.812;2023-03-31T03:09:17;15.98;;;8.52;;
47749;SDS011;49810;48.160;10.812;2023-03-31T03:11:49;15.07;;;10.02;;
47749;SDS011;49810;48.160;10.812;2023-03-31T03:14:21;18.60;;;10.55;;
47749;SDS011;49810;48.160;10.812;2023-03-31T03:16:52;19.10;;;9.82;;
47749;SDS011;49810;48.160;10.812;2023-03-31T03:19:23;21.67;;;11.57;;
47749;SDS011;49810;48.160;10.812;2023-03-31T03:21:51;18.35;;;10.95;;
47749;SDS011;49810;48.160;10.812;2023-03-31T03:24:19;19.63;;;10.18;;
47749;SDS011;49810;48.160;10.812;2023-03-31T03:26:49;20.02;;;11.15;;
47749;SDS011;49810;48.160;10.812;2023-03-31T03:29:17;20.60;;;11.90;;
47749;SDS011;49810;48.160;10.812;2023-03-31T03:31:45;22.23;;;11.68;;
47749;SDS011;49810;48.160;10.812;2023-03-31T03:34:13;21.73;;;11.90;;
47749;SDS011;49810;48.160;10.812;2023-03-31T03:36:43;23.98;;;12.50;;
47749;SDS011;49810;48.160;10.812;2023-03-31T03:39:11;20.35;;;11.55;;
47749;SDS011;49810;48.160;10.812;2023-03-31T03:41:39;25.38;;;13.45;;
47749;SDS011;49810;48.160;10.812;2023-03-31T03:44:07;24.23;;;13.80;;
47749;SDS011;49810;48.160;10.812;2023-03-31T03:46:34;20.90;;;13.13;;
47749;SDS011;49810;48.160;10.812;2023-03-31T03:49:02;22.83;;;14.88;;
47749;SDS011;49810;48.160;10.812;2023-03-31T03:51:30;24.55;;;14.70;;
47749;SDS011;49810;48.160;10.812;2023-03-31T03:54:00;28.05;;;14.57;;
47749;SDS011;49810;48.160;10.812;2023-03-31T03:56:28;28.15;;;14.32;;
47749;SDS011;49810;48.160;10.812;2023-03-31T03:58:55;26.95;;;15.35;;
47749;SDS011;49810;48.160;10.812;2023-03-31T04:01:24;24.20;;;14.52;;
47749;SDS011;49810;48.160;10.812;2023-03-31T04:03:52;21.63;;;14.35;;
47749;SDS011;49810;48.160;10.812;2023-03-31T04:06:20;30.58;;;14.73;;
47749;SDS011;49810;48.160;10.812;2023-03-31T04:08:48;26.17;;;14.98;;
47749;SDS011;49810;48.160;10.812;2023-03-31T04:11:17;29.15;;;14.15;;
47749;SDS011;49810;48.160;10.812;2023-03-31T04:13:46;29.52;;;14.60;;
47749;SDS011;49810;48.160;10.812;2023-03-31T04:16:13;28.27;;;13.82;;
47749;SDS011;49810;48.160;10.812;2023-03-31T04:18:42;32.85;;;16.98;;
47749;SDS011;49810;48.160;10.812;2023-03-31T04:21:11;26.20;;;15.75;;
47749;SDS011;49810;48.160;10.812;2023-03-31T04:23:41;31.45;;;16.65;;
47749;SDS011;49810;48.160;10.812;2023-03-31T04:26:11;30.85;;;16.48;;
47749;SDS011;49810;48.160;10.812;2023-03-31T04:28:41;30.55;;;15.23;;
47749;SDS011;49810;48.160;10.812;2023-03-31T04:31:13;32.03;;;14.82;;
47749;SDS011;49810;48.160;10.812;2023-03-31T04:33:42;33.13;;;16.05;;
47749;SDS011;49810;48.160;10.812;2023-03-31T04:36:11;29.92;;;15.57;;
47749;SDS011;49810;48.160;10.812;2023-03-31T04:38:44;34.97;;;19.48;;
47749;SDS011;49810;48.160;10.812;2023-03-31T04:41:13;35.00;;;16.95;;
47749;SDS011;49810;48.160;10.812;2023-03-31T04:43:42;26.73;;;14.93;;
47749;SDS011;49810;48.160;10.812;2023-03-31T04:46:10;37.85;;;15.85;;
47749;SDS011;49810;48.160;10.812;2023-03-31T04:48:38;29.20;;;15.52;;
47749;SDS011;49810;48.160;10.812;2023-03-31T04:51:06;49.90;;;27.75;;
47749;SDS011;49810;48.160;10.812;2023-03-31T04:53:35;35.25;;;16.98;;
47749;SDS011;49810;48.160;10.812;2023-03-31T04:56:03;25.17;;;14.68;;
47749;SDS011;49810;48.160;10.812;2023-03-31T04:58:31;27.38;;;15.63;;
47749;SDS011;49810;48.160;10.812;2023-03-31T05:01:01;31.42;;;17.70;;
47749;SDS011;49810;48.160;10.812;2023-03-31T05:03:29;28.13;;;16.25;;
47749;SDS011;49810;48.160;10.812;2023-03-31T05:05:57;26.02;;;16.67;;
47749;SDS011;49810;48.160;10.812;2023-03-31T05:08:25;31.33;;;17.33;;
47749;SDS011;49810;48.160;10.812;2023-03-31T05:10:53;42.75;;;24.92;;
47749;SDS011;49810;48.160;10.812;2023-03-31T05:13:21;33.80;;;20.55;;
47749;SDS011;49810;48.160;10.812;2023-03-31T05:15:49;35.35;;;16.83;;
47749;SDS011;49810;48.160;10.812;2023-03-31T05:18:18;33.05;;;17.48;;
47749;SDS011;49810;48.160;10.812;2023-03-31T05:20:46;31.80;;;16.13;;
47749;SDS011;49810;48.160;10.812;2023-03-31T05:23:14;33.55;;;17.83;;
47749;SDS011;49810;48.160;10.812;2023-03-31T05:25:42;43.67;;;25.00;;
47749;SDS011;49810;48.160;10.812;2023-03-31T05:28:11;29.45;;;16.63;;
47749;SDS011;49810;48.160;10.812;2023-03-31T05:30:39;32.17;;;16.25;;
47749;SDS011;49810;48.160;10.812;2023-03-31T05:33:07;28.90;;;15.20;;
47749;SDS011;49810;48.160;10.812;2023-03-31T05:35:37;26.20;;;15.00;;
47749;SDS011;49810;48.160;10.812;2023-03-31T05:38:05;31.58;;;15.20;;
47749;SDS011;49810;48.160;10.812;2023-03-31T05:40:33;29.10;;;15.73;;
47749;SDS011;49810;48.160;10.812;2023-03-31T05:43:01;27.02;;;15.57;;
47749;SDS011;49810;48.160;10.812;2023-03-31T05:45:29;29.55;;;14.68;;
47749;SDS011;49810;48.160;10.812;2023-03-31T05:47:57;24.17;;;13.98;;
47749;SDS011;49810;48.160;10.812;2023-03-31T05:50:27;23.65;;;13.65;;
47749;SDS011;49810;48.160;10.812;2023-03-31T05:54:21;24.43;;;14.27;;
47749;SDS011;49810;48.160;10.812;2023-03-31T05:56:49;31.02;;;14.57;;
47749;SDS011;49810;48.160;10.812;2023-03-31T05:59:17;29.05;;;13.45;;
47749;SDS011;49810;48.160;10.812;2023-03-31T06:01:46;23.73;;;12.77;;
47749;SDS011;49810;48.160;10.812;2023-03-31T06:04:13;28.45;;;18.52;;
47749;SDS011;49810;48.160;10.812;2023-03-31T06:06:41;24.63;;;12.75;;
47749;SDS011;49810;48.160;10.812;2023-03-31T06:09:11;20.85;;;12.15;;
47749;SDS011;49810;48.160;10.812;2023-03-31T06:11:41;23.88;;;12.30;;
47749;SDS011;49810;48.160;10.812;2023-03-31T06:14:09;22.13;;;13.23;;
47749;SDS011;49810;48.160;10.812;2023-03-31T06:16:37;26.52;;;12.30;;
47749;SDS011;49810;48.160;10.812;2023-03-31T06:19:05;24.73;;;12.05;;
47749;SDS011;49810;48.160;10.812;2023-03-31T06:21:32;20.88;;;10.95;;
47749;SDS011;49810;48.160;10.812;2023-03-31T06:24:00;24.05;;;11.80;;
47749;SDS011;49810;48.160;10.812;2023-03-31T06:26:28;25.95;;;11.57;;
47749;SDS011;49810;48.160;10.812;2023-03-31T06:28:57;18.90;;;11.15;;
47749;SDS011;49810;48.160;10.812;2023-03-31T06:31:25;22.15;;;10.82;;
47749;SDS011;49810;48.160;10.812;2023-03-31T06:33:53;24.98;;;11.48;;
47749;SDS011;49810;48.160;10.812;2023-03-31T06:36:21;24.48;;;11.57;;
47749;SDS011;49810;48.160;10.812;2023-03-31T06:38:49;19.98;;;11.15;;
47749;SDS011;49810;48.160;10.812;2023-03-31T06:41:17;19.48;;;11.77;;
47749;SDS011;49810;48.160;10.812;2023-03-31T06:43:48;28.30;;;12.90;;
47749;SDS011;49810;48.160;10.812;2023-03-31T06:46:17;22.25;;;12.48;;
47749;SDS011;49810;48.160;10.812;2023-03-31T06:48:45;30.75;;;18.35;;
47749;SDS011;49810;48.160;10.812;2023-03-31T06:51:13;20.60;;;12.60;;
47749;SDS011;49810;48.160;10.812;2023-03-31T06:53:41;25.88;;;14.75;;
47749;SDS011;49810;48.160;10.812;2023-03-31T06:56:09;31.15;;;15.50;;
47749;SDS011;49810;48.160;10.812;2023-03-31T06:58:37;31.75;;;18.63;;
47749;SDS011;49810;48.160;10.812;2023-03-31T07:01:05;40.72;;;21.58;;
47749;SDS011;49810;48.160;10.812;2023-03-31T07:03:35;30.40;;;16.58;;
47749;SDS011;49810;48.160;10.812;2023-03-31T07:06:03;24.33;;;13.60;;
47749;SDS011;49810;48.160;10.812;2023-03-31T07:08:31;23.77;;;11.85;;
47749;SDS011;49810;48.160;10.812;2023-03-31T07:11:00;21.52;;;12.35;;
47749;SDS011;49810;48.160;10.812;2023-03-31T07:13:29;25.67;;;14.00;;
47749;SDS011;49810;48.160;10.812;2023-03-31T07:15:57;25.77;;;14.90;;
47749;SDS011;49810;48.160;10.812;2023-03-31T07:18:25;27.60;;;14.50;;
47749;SDS011;49810;48.160;10.812;2023-03-31T07:21:02;26.92;;;14.60;;
47749;SDS011;49810;48.160;10.812;2023-03-31T07:23:35;24.63;;;13.73;;
47749;SDS011;49810;48.160;10.812;2023-03-31T07:26:03;24.23;;;13.20;;
47749;SDS011;49810;48.160;10.812;2023-03-31T07:28:32;26.88;;;13.73;;
47749;SDS011;49810;48.160;10.812;2023-03-31T07:30:59;23.80;;;12.88;;
47749;SDS011;49810;48.160;10.812;2023-03-31T07:33:27;21.80;;;12.95;;
47749;SDS011;49810;48.160;10.812;2023-03-31T07:35:55;26.58;;;13.48;;
47749;SDS011;49810;48.160;10.812;2023-03-31T07:38:41;25.00;;;12.32;;
47749;SDS011;49810;48.160;10.812;2023-03-31T07:41:10;21.70;;;12.43;;
47749;SDS011;49810;48.160;10.812;2023-03-31T07:43:38;18.45;;;11.90;;
47749;SDS011;49810;48.160;10.812;2023-03-31T07:46:12;17.27;;;11.07;;
47749;SDS011;49810;48.160;10.812;2023-03-31T07:48:41;26.08;;;11.13;;
47749;SDS011;49810;48.160;10.812;2023-03-31T07:51:09;21.95;;;11.48;;
47749;SDS011;49810;48.160;10.812;2023-03-31T07:53:37;22.88;;;11.07;;
47749;SDS011;49810;48.160;10.812;2023-03-31T07:56:07;19.10;;;9.48;;
47749;SDS011;49810;48.160;10.812;2023-03-31T07:58:35;17.50;;;9.77;;
47749;SDS011;49810;48.160;10.812;2023-03-31T08:01:03;17.83;;;9.65;;
47749;SDS011;49810;48.160;10.812;2023-03-31T08:03:31;14.93;;;9.00;;
47749;SDS011;49810;48.160;10.812;2023-03-31T08:06:00;17.00;;;9.95;;
47749;SDS011;49810;48.160;10.812;2023-03-31T08:08:28;15.02;;;9.52;;
47749;SDS011;49810;48.160;10.812;2023-03-31T08:10:56;19.02;;;10.95;;
47749;SDS011;49810;48.160;10.812;2023-03-31T08:13:25;18.00;;;11.00;;
47749;SDS011;49810;48.160;10.812;2023-03-31T08:15:53;17.33;;;10.13;;
47749;SDS011;49810;48.160;10.812;2023-03-31T08:18:21;17.08;;;8.90;;
47749;SDS011;49810;48.160;10.812;2023-03-31T08:20:49;13.35;;;7.70;;
47749;SDS011;49810;48.160;10.812;2023-03-31T08:23:17;12.15;;;5.97;;
47749;SDS011;49810;48.160;10.812;2023-03-31T08:25:45;10.75;;;5.88;;
47749;SDS011;49810;48.160;10.812;2023-03-31T08:28:13;12.02;;;5.03;;
47749;SDS011;49810;48.160;10.812;2023-03-31T08:30:42;9.93;;;5.18;;
47749;SDS011;49810;48.160;10.812;2023-03-31T08:33:11;9.82;;;5.60;;
47749;SDS011;49810;48.160;10.812;2023-03-31T08:35:40;9.68;;;4.63;;
47749;SDS011;49810;48.160;10.812;2023-03-31T08:38:08;9.43;;;4.95;;
47749;SDS011;49810;48.160;10.812;2023-03-31T08:40:36;11.93;;;4.40;;
47749;SDS011;49810;48.160;10.812;2023-03-31T08:43:07;9.45;;;4.15;;
47749;SDS011;49810;48.160;10.812;2023-03-31T08:45:38;9.75;;;3.92;;
47749;SDS011;49810;48.160;10.812;2023-03-31T08:48:13;6.35;;;3.67;;
47749;SDS011;49810;48.160;10.812;2023-03-31T08:50:46;6.85;;;3.63;;
47749;SDS011;49810;48.160;10.812;2023-03-31T08:53:16;7.45;;;3.38;;
47749;SDS011;49810;48.160;10.812;2023-03-31T08:55:48;6.47;;;3.45;;
47749;SDS011;49810;48.160;10.812;2023-03-31T08:58:18;8.88;;;2.85;;
47749;SDS011;49810;48.160;10.812;2023-03-31T09:00:54;6.38;;;2.72;;
47749;SDS011;49810;48.160;10.812;2023-03-31T09:03:25;3.97;;;2.42;;
47749;SDS011;49810;48.160;10.812;2023-03-31T09:05:57;5.68;;;2.53;;
47749;SDS011;49810;48.160;10.812;2023-03-31T09:08:32;4.95;;;2.72;;
47749;SDS011;49810;48.160;10.812;2023-03-31T09:11:08;6.22;;;2.67;;
47749;SDS011;49810;48.160;10.812;2023-03-31T09:16:41;6.90;;;3.00;;
47749;SDS011;49810;48.160;10.812;2023-03-31T09:19:14;5.07;;;2.47;;
47749;SDS011;49810;48.160;10.812;2023-03-31T09:21:45;6.28;;;2.85;;
47749;SDS011;49810;48.160;10.812;2023-03-31T09:24:16;7.45;;;3.97;;
47749;SDS011;49810;48.160;10.812;2023-03-31T09:26:46;4.88;;;2.70;;
47749;SDS011;49810;48.160;10.812;2023-03-31T09:29:16;4.93;;;2.55;;
47749;SDS011;49810;48.160;10.812;2023-03-31T09:31:45;7.35;;;3.05;;
47749;SDS011;49810;48.160;10.812;2023-03-31T09:34:16;8.18;;;3.13;;
47749;SDS011;49810;48.160;10.812;2023-03-31T09:36:45;5.85;;;2.58;;
47749;SDS011;49810;48.160;10.812;2023-03-31T09:39:13;5.30;;;2.75;;
47749;SDS011;49810;48.160;10.812;2023-03-31T09:41:42;9.27;;;2.90;;
47749;SDS011;49810;48.160;10.812;2023-03-31T09:44:20;7.10;;;2.38;;
47749;SDS011;49810;48.160;10.812;2023-03-31T09:46:53;5.65;;;2.55;;
47749;SDS011;49810;48.160;10.812;2023-03-31T09:49:24;7.22;;;2.45;;
47749;SDS011;49810;48.160;10.812;2023-03-31T09:51:58;4.47;;;2.00;;
47749;SDS011;49810;48.160;10.812;2023-03-31T09:54:27;5.55;;;2.20;;
47749;SDS011;49810;48.160;10.812;2023-03-31T09:56:58;7.75;;;2.55;;
47749;SDS011;49810;48.160;10.812;2023-03-31T09:59:29;4.75;;;2.15;;
47749;SDS011;49810;48.160;10.812;2023-03-31T10:01:58;6.28;;;2.20;;
47749;SDS011;49810;48.160;10.812;2023-03-31T10:04:30;3.85;;;1.88;;
47749;SDS011;49810;48.160;10.812;2023-03-31T10:06:59;6.07;;;2.10;;
47749;SDS011;49810;48.160;10.812;2023-03-31T10:09:28;6.45;;;2.40;;
47749;SDS011;49810;48.160;10.812;2023-03-31T10:11:57;7.97;;;2.50;;
47749;SDS011;49810;48.160;10.812;2023-03-31T10:14:31;5.82;;;1.98;;
47749;SDS011;49810;48.160;10.812;2023-03-31T10:17:03;7.97;;;2.80;;
47749;SDS011;49810;48.160;10.812;2023-03-31T10:19:33;6.35;;;2.20;;
47749;SDS011;49810;48.160;10.812;2023-03-31T10:22:02;6.60;;;2.45;;
47749;SDS011;49810;48.160;10.812;2023-03-31T10:24:35;5.85;;;2.20;;
47749;SDS011;49810;48.160;10.812;2023-03-31T10:27:04;6.28;;;2.90;;
47749;SDS011;49810;48.160;10.812;2023-03-31T10:29:33;6.22;;;2.53;;
47749;SDS011;49810;48.160;10.812;2023-03-31T10:32:02;3.85;;;2.20;;
47749;SDS011;49810;48.160;10.812;2023-03-31T10:34:33;6.05;;;2.33;;
47749;SDS011;49810;48.160;10.812;2023-03-31T10:37:02;5.43;;;2.53;;
47749;SDS011;49810;48.160;10.812;2023-03-31T10:39:31;6.32;;;2.60;;
47749;SDS011;49810;48.160;10.812;2023-03-31T10:41:59;7.40;;;2.78;;
47749;SDS011;49810;48.160;10.812;2023-03-31T10:44:31;9.10;;;2.85;;
47749;SDS011;49810;48.160;10.812;2023-03-31T10:47:04;6.78;;;2.58;;
47749;SDS011;49810;48.160;10.812;2023-03-31T10:49:37;6.78;;;2.63;;
47749;SDS011;49810;48.160;10.812;2023-03-31T10:52:13;6.35;;;2.97;;
47749;SDS011;49810;48.160;10.812;2023-03-31T10:54:45;11.10;;;3.13;;
47749;SDS011;49810;48.160;10.812;2023-03-31T10:57:13;8.45;;;2.10;;
47749;SDS011;49810;48.160;10.812;2023-03-31T10:59:48;6.95;;;2.08;;
47749;SDS011;49810;48.160;10.812;2023-03-31T11:02:35;6.03;;;1.38;;
47749;SDS011;49810;48.160;10.812;2023-03-31T11:05:11;3.33;;;1.60;;
47749;SDS011;49810;48.160;10.812;2023-03-31T11:07:45;3.63;;;1.45;;
47749;SDS011;49810;48.160;10.812;2023-03-31T11:10:19;3.58;;;1.80;;
47749;SDS011;49810;48.160;10.812;2023-03-31T11:12:50;2.85;;;1.10;;
47749;SDS011;49810;48.160;10.812;2023-03-31T11:15:21;4.57;;;1.67;;
47749;SDS011;49810;48.160;10.812;2023-03-31T11:17:54;6.38;;;1.60;;
47749;SDS011;49810;48.160;10.812;2023-03-31T11:20:27;7.18;;;2.60;;
47749;SDS011;49810;48.160;10.812;2023-03-31T11:22:58;8.90;;;2.00;;
47749;SDS011;49810;48.160;10.812;2023-03-31T11:25:31;3.45;;;1.60;;
47749;SDS011;49810;48.160;10.812;2023-03-31T11:28:12;4.18;;;1.60;;
47749;SDS011;49810;48.160;10.812;2023-03-31T11:30:47;5.13;;;2.00;;
47749;SDS011;49810;48.160;10.812;2023-03-31T11:33:24;3.65;;;1.50;;
47749;SDS011;49810;48.160;10.812;2023-03-31T11:36:00;5.72;;;1.23;;
47749;SDS011;49810;48.160;10.812;2023-03-31T11:41:16;5.53;;;2.25;;
47749;SDS011;49810;48.160;10.812;2023-03-31T11:43:46;8.80;;;2.15;;
47749;SDS011;49810;48.160;10.812;2023-03-31T11:46:16;6.38;;;2.85;;
47749;SDS011;49810;48.160;10.812;2023-03-31T11:48:46;6.03;;;2.55;;
47749;SDS011;49810;48.160;10.812;2023-03-31T11:51:20;6.20;;;2.00;;
47749;SDS011;49810;48.160;10.812;2023-03-31T11:53:52;6.07;;;1.80;;
47749;SDS011;49810;48.160;10.812;2023-03-31T11:56:21;7.00;;;2.03;;
47749;SDS011;49810;48.160;10.812;2023-03-31T11:58:50;2.88;;;1.17;;
47749;SDS011;49810;48.160;10.812;2023-03-31T12:01:20;5.50;;;1.63;;
47749;SDS011;49810;48.160;10.812;2023-03-31T12:03:52;7.45;;;1.83;;
47749;SDS011;49810;48.160;10.812;2023-03-31T12:06:23;7.72;;;2.60;;
47749;SDS011;49810;48.160;10.812;2023-03-31T12:08:58;11.27;;;1.95;;
47749;SDS011;49810;48.160;10.812;2023-03-31T12:11:30;5.70;;;2.00;;
47749;SDS011;49810;48.160;10.812;2023-03-31T12:14:00;4.20;;;1.92;;
47749;SDS011;49810;48.160;10.812;2023-03-31T12:16:34;5.63;;;1.60;;
47749;SDS011;49810;48.160;10.812;2023-03-31T12:19:04;6.03;;;1.67;;
47749;SDS011;49810;48.160;10.812;2023-03-31T12:21:34;3.42;;;1.30;;
47749;SDS011;49810;48.160;10.812;2023-03-31T12:24:05;6.53;;;1.60;;
47749;SDS011;49810;48.160;10.812;2023-03-31T12:26:36;3.47;;;1.25;;
47749;SDS011;49810;48.160;10.812;2023-03-31T12:29:06;7.32;;;1.70;;
47749;SDS011;49810;48.160;10.812;2023-03-31T12:31:39;7.78;;;1.58;;
47749;SDS011;49810;48.160;10.812;2023-03-31T12:34:09;5.63;;;1.70;;
47749;SDS011;49810;48.160;10.812;2023-03-31T12:36:44;4.28;;;1.67;;
47749;SDS011;49810;48.160;10.812;2023-03-31T12:39:19;5.50;;;1.60;;
47749;SDS011;49810;48.160;10.812;2023-03-31T12:41:55;4.60;;;1.80;;
47749;SDS011;49810;48.160;10.812;2023-03-31T12:44:28;7.60;;;1.48;;
47749;SDS011;49810;48.160;10.812;2023-03-31T12:47:13;3.30;;;1.50;;
47749;SDS011;49810;48.160;10.812;2023-03-31T12:49:49;6.07;;;1.60;;
47749;SDS011;49810;48.160;10.812;2023-03-31T12:52:23;4.40;;;1.83;;
47749;SDS011;49810;48.160;10.812;2023-03-31T12:57:41;4.97;;;1.70;;
47749;SDS011;49810;48.160;10.812;2023-03-31T13:00:16;5.90;;;1.80;;
47749;SDS011;49810;48.160;10.812;2023-03-31T13:02:48;6.38;;;1.63;;
47749;SDS011;49810;48.160;10.812;2023-03-31T13:08:01;5.47;;;1.20;;
47749;SDS011;49810;48.160;10.812;2023-03-31T13:10:29;5.88;;;1.40;;
47749;SDS011;49810;48.160;10.812;2023-03-31T13:13:02;6.47;;;1.27;;
47749;SDS011;49810;48.160;10.812;2023-03-31T13:15:31;4.32;;;1.92;;
47749;SDS011;49810;48.160;10.812;2023-03-31T13:18:00;5.13;;;1.90;;
47749;SDS011;49810;48.160;10.812;2023-03-31T13:20:31;5.85;;;1.27;;
47749;SDS011;49810;48.160;10.812;2023-03-31T13:23:03;7.10;;;2.08;;
47749;SDS011;49810;48.160;10.812;2023-03-31T13:25:34;5.85;;;1.63;;
47749;SDS011;49810;48.160;10.812;2023-03-31T13:28:07;4.90;;;1.27;;
47749;SDS011;49810;48.160;10.812;2023-03-31T13:30:48;7.53;;;2.28;;
47749;SDS011;49810;48.160;10.812;2023-03-31T13:33:18;5.05;;;1.60;;
47749;SDS011;49810;48.160;10.812;2023-03-31T13:35:47;6.43;;;1.20;;
47749;SDS011;49810;48.160;10.812;2023-03-31T13:38:21;9.02;;;1.80;;
47749;SDS011;49810;48.160;10.812;2023-03-31T13:40:54;6.05;;;1.58;;
47749;SDS011;49810;48.160;10.812;2023-03-31T13:43:33;4.78;;;1.40;;
47749;SDS011;49810;48.160;10.812;2023-03-31T13:46:14;5.57;;;1.70;;
47749;SDS011;49810;48.160;10.812;2023-03-31T13:48:48;5.80;;;1.80;;
47749;SDS011;49810;48.160;10.812;2023-03-31T13:51:21;6.60;;;1.40;;
47749;SDS011;49810;48.160;10.812;2023-03-31T13:56:56;6.25;;;1.55;;
47749;SDS011;49810;48.160;10.812;2023-03-31T13:59:35;4.82;;;1.38;;
47749;SDS011;49810;48.160;10.812;2023-03-31T14:02:16;6.68;;;2.70;;
47749;SDS011;49810;48.160;10.812;2023-03-31T14:05:08;7.82;;;1.73;;
47749;SDS011;49810;48.160;10.812;2023-03-31T14:07:49;7.55;;;1.50;;
47749;SDS011;49810;48.160;10.812;2023-03-31T14:10:21;12.23;;;2.60;;
47749;SDS011;49810;48.160;10.812;2023-03-31T14:12:51;14.80;;;3.45;;
47749;SDS011;49810;48.160;10.812;2023-03-31T14:15:30;12.77;;;3.20;;
47749;SDS011;49810;48.160;10.812;2023-03-31T14:17:59;9.48;;;2.70;;
47749;SDS011;49810;48.160;10.812;2023-03-31T14:20:29;7.72;;;2.55;;
47749;SDS011;49810;48.160;10.812;2023-03-31T14:23:03;5.53;;;2.17;;
47749;SDS011;49810;48.160;10.812;2023-03-31T14:25:41;6.28;;;2.38;;
47749;SDS011;49810;48.160;10.812;2023-03-31T14:28:17;7.63;;;1.83;;
47749;SDS011;49810;48.160;10.812;2023-03-31T14:30:53;6.40;;;1.77;;
47749;SDS011;49810;48.160;10.812;2023-03-31T14:33:31;5.38;;;1.50;;
47749;SDS011;49810;48.160;10.812;2023-03-31T14:36:04;6.38;;;1.40;;
47749;SDS011;49810;48.160;10.812;2023-03-31T14:38:34;4.35;;;1.60;;
47749;SDS011;49810;48.160;10.812;2023-03-31T14:41:03;3.53;;;1.40;;
47749;SDS011;49810;48.160;10.812;2023-03-31T14:43:33;4.22;;;1.88;;
47749;SDS011;49810;48.160;10.812;2023-03-31T14:46:04;4.55;;;1.63;;
47749;SDS011;49810;48.160;10.812;2023-03-31T14:48:33;4.95;;;1.38;;
47749;SDS011;49810;48.160;10.812;2023-03-31T14:51:02;7.07;;;1.92;;
47749;SDS011;49810;48.160;10.812;2023-03-31T14:53:30;6.38;;;1.50;;
47749;SDS011;49810;48.160;10.812;2023-03-31T14:55:59;4.35;;;1.00;;
47749;SDS011;49810;48.160;10.812;2023-03-31T14:58:29;5.38;;;0.85;;
47749;SDS011;49810;48.160;10.812;2023-03-31T15:01:02;5.78;;;1.50;;
47749;SDS011;49810;48.160;10.812;2023-03-31T15:03:32;6.50;;;1.17;;
47749;SDS011;49810;48.160;10.812;2023-03-31T15:06:01;3.63;;;0.85;;
47749;SDS011;49810;48.160;10.812;2023-03-31T15:08:30;4.53;;;1.20;;